Stacja Pogody
Warszawa Praga-Północ

Szerokość 52°15'43"N Długość 21°01'22"E Wysokość 110m n.p.m.


18 dzień roku.   Do końca pozostalo 347 dni.   Od wczoraj przybyło 2 min. i 38 sek. dnia.
Wschód Słońca 07:35 Górowanie Słońca 11:46 Zachód Słońca 15:57 koziorozec
Data juliańska 2457772.956 Odległość Słońca 147187430 km Średn. kątowa Słońca 0,325°
Wschód Księżyca 23:14 Zachód Księżyca 10:22 Wiek Księżyca 21 dni Moon
Widoczność Księżyca 64,24% Odległość Księżyca 398552 km Średn. kątowa Księżyca 0,300°
Dzień krótszy od najdłuższego o: 08:26 Długość dnia 08:21 Imieniny Piotra, Małgorzaty



  Aktualizacja: 18-01-2017 10:54:26
TEMPERATURA
Aktualnie: -2.3°C ↑↑
Temperatura odczuwalna:-7.1°C
Punkt rosy-8.4°C
WIATR
Średnia prędkość: 9.7km/h ↑
Prędkość w podmuchach:13.3km/h
Przepływ w ciągu doby:13.4km
Kierunek wiatru:180°
CIŚNIENIE
Względne:1040.8hPa
Bezwzględne:1027.3hPa
Trend ciśnienia:powolny wzrost
WILGOTNOŚĆ
Wilgotność względna: 63% ↓
Podstawa chmur3035m
DESZCZ
W ostatniej godzinie: 0.0mm
Dzisiaj:0.0mm
W tym miesiącu:28.2mm
METAR
EPWA 180930Z VRB02KT 2200 BR BKN017 M06/M07 Q1041 NOSIG
Ostrzeżenia burzowe
Prognoza 12-to godzinna (prawdopodobieństwo 75%):   Stabilna, dobra pogoda prognoza





a  a a